Time;durP1;ratioP1;P1;durP2;ratioP2;P2;SDS_P1;SDS_P2;PMS_P1;PMS_P2;Temp;Humidity;BMP_temperature;BMP_pressure;BME280_temperature;BME280_humidity;BME280_pressure;Samples;Min_cycle;Max_cycle;Signal;HPM_P1;HPM_P2
2022/02/26 00:04:11;;;;;;;0.00;0.00;;;;;;;3.48;100.00;102686.50;10533245;28;20341;-73
2022/02/26 00:09:11;;;;;;;0.00;0.00;;;;;;;3.46;100.00;102693.66;10533227;28;20039;-73
2022/02/26 00:14:12;;;;;;;0.00;0.00;;;;;;;3.40;100.00;102693.88;10515043;28;20374;-73
2022/02/26 00:19:12;;;;;;;0.00;0.00;;;;;;;3.33;100.00;102695.94;10533399;28;20024;-74
2022/02/26 00:24:13;;;;;;;0.00;0.00;;;;;;;3.30;100.00;102697.84;10532994;28;20258;-74
2022/02/26 00:29:13;;;;;;;0.00;0.00;;;;;;;3.27;100.00;102713.78;10532962;28;20020;-73
2022/02/26 00:34:13;;;;;;;0.03;0.03;;;;;;;3.20;100.00;102710.56;10534129;28;20024;-73
2022/02/26 00:39:14;;;;;;;0.00;0.00;;;;;;;3.22;100.00;102721.03;10533787;28;20161;-74
2022/02/26 00:44:14;;;;;;;0.00;0.00;;;;;;;3.24;100.00;102721.81;10533854;28;20024;-75
2022/02/26 00:54:34;;;;;;;0.00;0.00;;;;;;;3.20;100.00;102743.94;10533904;28;20028;-75
2022/02/26 00:59:34;;;;;;;0.00;0.00;;;;;;;3.15;100.00;102742.34;10519488;28;20020;-75
2022/02/26 01:04:36;;;;;;;0.00;0.00;;;;;;;3.12;100.00;102758.28;10541324;28;20625;-74
2022/02/26 01:09:38;;;;;;;0.00;0.00;;;;;;;3.09;100.00;102763.69;10523474;28;20402;-74
2022/02/26 01:14:39;;;;;;;0.00;0.00;;;;;;;3.03;100.00;102771.84;10541109;28;20024;-74
2022/02/26 01:19:40;;;;;;;0.00;0.00;;;;;;;3.01;100.00;102778.06;10540827;28;20032;-75
2022/02/26 01:24:41;;;;;;;0.00;0.00;;;;;;;2.99;100.00;102787.81;10540773;28;20032;-74
2022/02/26 01:29:41;;;;;;;0.00;0.00;;;;;;;2.93;100.00;102800.28;10541001;28;20539;-74
2022/02/26 01:34:41;;;;;;;0.00;0.00;;;;;;;2.84;100.00;102799.81;10539806;28;20089;-74
2022/02/26 01:39:42;;;;;;;0.00;0.00;;;;;;;2.75;100.00;102815.97;10540012;28;20020;-74
2022/02/26 01:44:50;;;;;;;0.00;0.00;;;;;;;2.66;100.00;102818.03;10522338;28;20360;-74
2022/02/26 01:49:51;;;;;;;0.00;0.00;;;;;;;2.61;100.00;102819.97;10521509;28;20486;-74
2022/02/26 01:54:51;;;;;;;0.00;0.00;;;;;;;2.54;100.00;102829.03;10538763;28;20024;-77
2022/02/26 01:59:51;;;;;;;0.10;0.10;;;;;;;2.48;100.00;102840.63;10539004;28;20286;-75
2022/02/26 02:04:52;;;;;;;0.00;0.00;;;;;;;2.44;100.00;102854.84;10539486;28;20786;-75
2022/02/26 02:09:52;;;;;;;0.00;0.00;;;;;;;2.35;100.00;102862.19;10520246;28;20077;-74
2022/02/26 02:14:53;;;;;;;0.00;0.00;;;;;;;2.22;100.00;102856.53;10539587;28;20019;-75
2022/02/26 02:19:53;;;;;;;0.00;0.00;;;;;;;2.11;100.00;102863.94;10539207;28;20028;-75
2022/02/26 02:24:53;;;;;;;0.00;0.00;;;;;;;2.07;100.00;102878.97;10538935;28;20024;-75
2022/02/26 02:29:54;;;;;;;0.00;0.00;;;;;;;2.04;100.00;102884.31;10538982;28;20444;-74
2022/02/26 02:34:54;;;;;;;0.00;0.00;;;;;;;2.00;100.00;102880.94;10538708;28;20034;-75
2022/02/26 02:39:54;;;;;;;0.00;0.00;;;;;;;2.04;100.00;102889.59;10538491;28;20479;-74
2022/02/26 02:44:54;;;;;;;0.00;0.00;;;;;;;2.00;100.00;102901.94;10537933;28;20023;-74
2022/02/26 02:49:55;;;;;;;0.00;0.00;;;;;;;1.99;100.00;102907.28;10537609;28;20031;-74
2022/02/26 02:54:55;;;;;;;0.00;0.00;;;;;;;1.98;100.00;102908.19;10536996;28;20490;-74
2022/02/26 02:59:55;;;;;;;0.00;0.00;;;;;;;1.95;100.00;102910.91;10536794;28;20420;-74
2022/02/26 03:04:56;;;;;;;0.00;0.00;;;;;;;1.93;100.00;102910.13;10536738;28;20024;-75
2022/02/26 03:09:56;;;;;;;0.00;0.00;;;;;;;1.87;100.00;102915.59;10536369;28;20016;-74
2022/02/26 03:14:57;;;;;;;0.00;0.00;;;;;;;1.83;100.00;102934.97;10536106;28;20028;-74
2022/02/26 03:19:57;;;;;;;0.00;0.00;;;;;;;1.79;100.00;102935.09;10535777;28;20059;-74
2022/02/26 03:24:57;;;;;;;0.00;0.00;;;;;;;1.71;100.00;102942.34;10535499;28;20052;-74
2022/02/26 03:29:58;;;;;;;0.00;0.00;;;;;;;1.70;100.00;102947.66;10535858;28;20236;-74
2022/02/26 03:34:58;;;;;;;0.00;0.00;;;;;;;1.64;100.00;102958.38;10535449;28;20039;-74
2022/02/26 03:39:59;;;;;;;0.00;0.00;;;;;;;1.56;100.00;102969.13;10535233;28;20020;-74
2022/02/26 03:44:59;;;;;;;0.00;0.00;;;;;;;1.52;100.00;102976.25;10534944;28;20318;-74
2022/02/26 03:50:00;;;;;;;0.00;0.00;;;;;;;1.48;100.00;102982.47;10534868;28;20028;-74
2022/02/26 03:55:04;;;;;;;0.00;0.00;;;;;;;1.45;100.00;102986.97;10538751;22;20032;-70
2022/02/26 04:00:06;;;;;;;0.00;0.00;;;;;;;1.41;100.00;102985.38;10518713;28;20029;-70
2022/02/26 04:05:07;;;;;;;0.10;0.10;;;;;;;1.32;100.00;103004.88;10518629;28;20597;-71
2022/02/26 04:10:08;;;;;;;0.00;0.00;;;;;;;1.27;100.00;103015.50;10494487;28;20123;-70
2022/02/26 04:15:09;;;;;;;0.00;0.00;;;;;;;1.20;100.00;103019.22;10529620;28;20022;-71
2022/02/26 04:20:10;;;;;;;0.00;0.00;;;;;;;1.13;100.00;103018.56;10528032;28;20021;-70
2022/02/26 04:25:10;;;;;;;0.00;0.00;;;;;;;1.09;100.00;103019.53;10495921;28;20031;-70
2022/02/26 04:30:11;;;;;;;0.00;0.00;;;;;;;1.03;100.00;103026.72;10518610;28;20489;-70
2022/02/26 04:35:11;;;;;;;0.00;0.00;;;;;;;1.01;100.00;103037.25;10520298;28;20028;-70
2022/02/26 04:40:13;;;;;;;0.10;0.10;;;;;;;1.00;100.00;103042.56;10509922;28;20016;-70
2022/02/26 04:45:14;;;;;;;0.00;0.00;;;;;;;0.99;100.00;103051.31;10540040;28;20269;-71
2022/02/26 04:50:15;;;;;;;0.00;0.00;;;;;;;1.02;100.00;103057.38;10510408;28;20520;-70
2022/02/26 04:55:15;;;;;;;0.00;0.00;;;;;;;1.06;100.00;103063.38;10497770;28;20349;-70
2022/02/26 05:00:16;;;;;;;0.00;0.00;;;;;;;1.11;100.00;103077.25;10494783;28;20425;-70
2022/02/26 05:05:16;;;;;;;0.00;0.00;;;;;;;1.14;100.00;103077.16;10497549;28;20266;-70
2022/02/26 05:10:16;;;;;;;0.05;0.05;;;;;;;1.14;100.00;103095.53;10496970;28;20433;-70
2022/02/26 05:15:17;;;;;;;0.00;0.00;;;;;;;1.11;100.00;103106.13;10496916;28;20078;-70
2022/02/26 05:20:17;;;;;;;0.00;0.00;;;;;;;1.08;100.00;103106.22;10496323;28;20766;-70
2022/02/26 05:25:17;;;;;;;0.00;0.00;;;;;;;1.05;100.00;103124.66;10478490;28;20432;-69
2022/02/26 05:30:18;;;;;;;0.00;0.00;;;;;;;1.00;100.00;103131.81;10505095;28;20737;-70
2022/02/26 05:35:18;;;;;;;0.00;0.00;;;;;;;0.97;100.00;103140.63;10496490;28;20075;-70
2022/02/26 05:40:18;;;;;;;0.00;0.00;;;;;;;0.90;100.00;103141.66;10496019;28;20082;-69
2022/02/26 05:45:19;;;;;;;0.00;0.00;;;;;;;0.79;100.00;103152.44;10495917;28;20027;-69
2022/02/26 05:50:19;;;;;;;0.00;0.00;;;;;;;0.74;100.00;103174.44;10494694;28;20059;-69
2022/02/26 05:55:19;;;;;;;0.10;0.10;;;;;;;0.69;100.00;103185.03;10495152;28;20039;-69
2022/02/26 06:00:20;;;;;;;0.00;0.00;;;;;;;0.63;100.00;103196.53;10495055;28;20753;-69
2022/02/26 06:05:20;;;;;;;0.03;0.03;;;;;;;0.55;100.00;103210.75;10513466;28;20051;-69
2022/02/26 06:10:20;;;;;;;0.00;0.00;;;;;;;0.47;100.00;103220.53;10536369;28;20031;-69
2022/02/26 06:15:21;;;;;;;0.00;0.00;;;;;;;0.40;100.00;103225.94;10535933;28;20032;-69
2022/02/26 06:20:21;;;;;;;0.00;0.00;;;;;;;0.37;100.00;103241.72;10530677;28;20020;-69
2022/02/26 06:25:21;;;;;;;0.10;0.10;;;;;;;0.38;100.00;103250.47;10493772;28;20475;-69
2022/02/26 06:30:22;;;;;;;0.00;0.00;;;;;;;0.40;100.00;103257.38;10513129;28;20035;-69
2022/02/26 06:35:22;;;;;;;0.08;0.08;;;;;;;0.50;100.00;103260.69;10507761;28;20051;-70
2022/02/26 06:40:22;;;;;;;0.00;0.00;;;;;;;0.69;100.00;103263.75;10504617;28;20061;-70
2022/02/26 06:45:23;;;;;;;0.10;0.10;;;;;;;1.00;100.00;103273.53;10535088;28;20258;-70
2022/02/26 06:50:23;;;;;;;0.10;0.10;;;;;;;1.47;100.00;103289.84;10526814;28;20824;-70
2022/02/26 06:55:24;;;;;;;0.00;0.00;;;;;;;2.39;100.00;103301.28;10492543;28;20047;-70
2022/02/26 07:00:26;;;;;;;0.00;0.00;;;;;;;3.45;100.00;103303.16;10492554;28;20402;-70
2022/02/26 07:05:26;;;;;;;0.00;0.00;;;;;;;4.54;100.00;103309.78;10492373;28;20262;-70
2022/02/26 07:10:26;;;;;;;0.00;0.00;;;;;;;5.56;100.00;103323.25;10492402;28;20020;-70
2022/02/26 07:15:27;;;;;;;0.00;0.00;;;;;;;6.46;100.00;103318.38;10504190;28;20097;-70
2022/02/26 07:20:27;;;;;;;0.00;0.00;;;;;;;7.32;100.00;103329.28;10524839;28;20489;-70
2022/02/26 07:25:27;;;;;;;0.00;0.00;;;;;;;7.98;100.00;103345.31;10491431;28;20028;-68
2022/02/26 07:30:28;;;;;;;0.10;0.10;;;;;;;8.61;100.00;103347.28;10491787;28;20013;-68
2022/02/26 07:35:28;;;;;;;0.00;0.00;;;;;;;9.15;98.72;103358.41;10491585;28;20031;-68
2022/02/26 07:40:29;;;;;;;0.10;0.10;;;;;;;9.49;94.24;103359.97;10491185;28;20220;-69
2022/02/26 07:45:29;;;;;;;0.10;0.10;;;;;;;9.69;91.63;103353.47;10491852;28;20495;-69
2022/02/26 07:50:30;;;;;;;0.10;0.10;;;;;;;9.97;90.48;103370.41;10488261;28;20471;-68
2022/02/26 07:55:30;;;;;;;0.10;0.10;;;;;;;10.34;89.25;103385.03;10490795;28;20471;-71
2022/02/26 08:00:31;;;;;;;0.10;0.10;;;;;;;10.63;88.30;103387.69;10519896;28;20103;-69
2022/02/26 08:05:31;;;;;;;0.10;0.10;;;;;;;10.69;85.20;103389.13;10532246;28;20020;-69
2022/02/26 08:10:32;;;;;;;0.10;0.10;;;;;;;10.63;83.65;103401.88;10520327;28;20016;-69
2022/02/26 08:15:32;;;;;;;0.10;0.10;;;;;;;10.76;85.64;103411.75;10540567;28;20018;-69
2022/02/26 08:20:33;;;;;;;0.10;0.10;;;;;;;10.62;81.01;103415.31;10530981;28;20063;-69
2022/02/26 08:25:34;;;;;;;0.10;0.10;;;;;;;10.43;83.23;103419.09;10513598;28;20016;-69
2022/02/26 08:30:34;;;;;;;0.10;0.10;;;;;;;10.31;80.09;103416.34;10522701;28;20036;-69
2022/02/26 08:35:34;;;;;;;0.10;0.10;;;;;;;10.05;81.81;103421.41;10506194;28;20095;-69
2022/02/26 08:40:35;;;;;;;0.10;0.10;;;;;;;9.97;81.77;103421.00;10493606;28;20278;-69
2022/02/26 08:45:35;;;;;;;0.10;0.10;;;;;;;9.90;81.49;103427.66;10497082;28;20501;-70
2022/02/26 08:50:36;;;;;;;0.00;0.00;;;;;;;9.55;82.70;103443.03;10492781;28;20365;-70
2022/02/26 08:55:36;;;;;;;0.10;0.10;;;;;;;9.44;82.98;103447.16;10499054;28;20033;-70
2022/02/26 09:00:37;;;;;;;0.10;0.10;;;;;;;9.26;86.08;103445.56;10498743;28;20025;-71
2022/02/26 09:05:37;;;;;;;0.00;0.00;;;;;;;9.23;84.60;103451.06;10498573;28;20320;-70
2022/02/26 09:10:38;;;;;;;0.10;0.10;;;;;;;9.34;85.69;103440.66;10498455;28;20031;-70
2022/02/26 09:15:38;;;;;;;0.00;0.00;;;;;;;9.30;86.12;103445.28;10498246;28;20028;-70
2022/02/26 09:20:38;;;;;;;0.10;0.10;;;;;;;9.25;85.31;103454.47;10491196;28;20375;-71
2022/02/26 09:25:39;;;;;;;0.10;0.10;;;;;;;9.05;85.30;103461.75;10497926;28;20546;-71
2022/02/26 09:30:40;;;;;;;0.10;0.10;;;;;;;8.61;86.29;103462.38;10497587;28;20270;-71
2022/02/26 09:35:40;;;;;;;0.10;0.10;;;;;;;8.30;87.48;103478.19;10497631;28;20039;-71
2022/02/26 09:40:40;;;;;;;0.10;0.10;;;;;;;7.92;85.34;103475.69;10497455;28;20021;-71
2022/02/26 09:45:41;;;;;;;0.10;0.10;;;;;;;7.88;87.78;103482.94;10497693;28;20103;-71
2022/02/26 09:50:41;;;;;;;0.00;0.00;;;;;;;7.81;88.60;103480.66;10490383;28;20032;-71
2022/02/26 09:55:43;;;;;;;0.10;0.10;;;;;;;7.87;87.22;103490.97;10545036;22;20217;-73
2022/02/26 10:00:46;;;;;;;0.00;0.00;;;;;;;7.87;88.86;103485.66;10526336;28;20402;-68
2022/02/26 10:06:14;;;;;;;0.10;0.10;;;;;;;7.68;87.06;103496.34;10494278;28;20024;-73
2022/02/26 10:11:27;;;;;;;0.10;0.10;;;;;;;7.60;87.51;103498.50;10478566;28;20031;-68
2022/02/26 10:16:51;;;;;;;0.08;0.08;;;;;;;7.50;86.99;103508.69;10477710;28;20162;-68
2022/02/26 10:21:54;;;;;;;0.10;0.10;;;;;;;7.42;88.27;103509.06;10496220;28;20032;-68
2022/02/26 10:27:00;;;;;;;0.00;0.00;;;;;;;7.50;89.16;103516.63;10495676;28;20012;-68
2022/02/26 10:32:01;;;;;;;0.10;0.10;;;;;;;7.63;89.26;103514.28;10495333;28;20391;-72
2022/02/26 10:37:11;;;;;;;0.10;0.10;;;;;;;7.69;87.39;103506.00;10495501;28;20024;-72
2022/02/26 10:42:23;;;;;;;0.00;0.00;;;;;;;7.58;86.95;103498.56;10477165;28;20273;-72
2022/02/26 10:47:28;;;;;;;0.00;0.00;;;;;;;7.36;82.48;103505.81;10494441;28;20024;-71
2022/02/26 10:52:31;;;;;;;0.00;0.00;;;;;;;7.29;86.89;103504.41;10494173;28;20052;-69
2022/02/26 10:57:32;;;;;;;0.00;0.00;;;;;;;7.20;89.79;103503.03;10494675;28;20016;-72
2022/02/26 11:02:32;;;;;;;0.00;0.00;;;;;;;7.07;87.52;103508.06;10494326;28;20024;-72
2022/02/26 11:07:33;;;;;;;0.00;0.00;;;;;;;6.95;89.50;103505.94;10494208;28;20020;-73
2022/02/26 11:12:35;;;;;;;0.00;0.00;;;;;;;6.95;87.03;103508.59;10494716;28;20036;-72
2022/02/26 11:17:36;;;;;;;0.00;0.00;;;;;;;6.98;85.30;103500.50;10494453;28;20016;-73
2022/02/26 11:22:37;;;;;;;0.10;0.10;;;;;;;6.95;86.31;103505.94;10476577;28;20078;-74
2022/02/26 11:27:37;;;;;;;0.00;0.00;;;;;;;7.00;86.28;103519.88;10493857;28;20016;-73
2022/02/26 11:32:40;;;;;;;0.00;0.00;;;;;;;7.06;89.93;103522.22;10494184;28;20637;-72
2022/02/26 11:37:41;;;;;;;0.00;0.00;;;;;;;7.13;92.24;103525.47;10492996;28;20032;-73
2022/02/26 11:42:42;;;;;;;0.10;0.10;;;;;;;7.15;88.87;103529.75;10493415;28;20485;-73
2022/02/26 11:48:00;;;;;;;0.00;0.00;;;;;;;7.14;89.15;103536.00;10493189;28;20024;-72
2022/02/26 11:53:02;;;;;;;0.00;0.00;;;;;;;7.18;90.59;103526.09;10493114;28;20036;-73
2022/02/26 11:58:13;;;;;;;0.00;0.00;;;;;;;7.24;90.70;103537.31;10492975;28;20087;-73
2022/02/26 12:03:38;;;;;;;0.00;0.00;;;;;;;7.25;89.94;103531.06;10493256;28;20475;-73
2022/02/26 12:08:41;;;;;;;0.10;0.10;;;;;;;7.24;89.23;103534.66;10492363;28;20021;-74
2022/02/26 12:13:42;;;;;;;0.00;0.00;;;;;;;7.30;89.61;103522.91;10492623;28;20020;-73
2022/02/26 12:18:45;;;;;;;0.00;0.00;;;;;;;7.30;88.49;103524.66;10492646;28;20031;-73
2022/02/26 12:24:08;;;;;;;0.00;0.00;;;;;;;7.31;88.32;103529.91;10492232;28;20494;-73
2022/02/26 12:29:08;;;;;;;0.00;0.00;;;;;;;7.30;88.70;103527.31;10492935;28;20079;-72
2022/02/26 12:34:10;;;;;;;0.00;0.00;;;;;;;7.31;84.55;103527.28;10492404;28;20082;-72
2022/02/26 12:39:11;;;;;;;0.10;0.10;;;;;;;7.29;86.17;103520.31;10491642;28;20033;-73
2022/02/26 12:44:12;;;;;;;0.00;0.00;;;;;;;7.30;82.09;103528.22;10474151;28;20029;-72
2022/02/26 12:49:14;;;;;;;0.00;0.00;;;;;;;7.35;82.91;103517.38;10491882;28;20103;-73
2022/02/26 12:54:26;;;;;;;0.00;0.00;;;;;;;7.43;84.99;103520.53;10475924;28;20130;-72
2022/02/26 12:59:29;;;;;;;0.00;0.00;;;;;;;7.49;83.53;103522.88;10499677;28;20099;-73
2022/02/26 13:04:32;;;;;;;0.00;0.00;;;;;;;7.44;84.18;103511.63;10499248;28;20029;-74
2022/02/26 13:09:48;;;;;;;0.10;0.10;;;;;;;7.40;84.14;103512.72;10480757;28;20078;-72
2022/02/26 13:14:59;;;;;;;0.10;0.10;;;;;;;7.41;84.02;103506.47;10499040;28;20039;-72
2022/02/26 13:20:01;;;;;;;0.10;0.10;;;;;;;7.45;82.09;103505.41;10498578;28;20479;-72
2022/02/26 13:25:02;;;;;;;0.10;0.10;;;;;;;7.43;78.59;103494.00;10498807;28;20473;-72
2022/02/26 13:30:02;;;;;;;0.00;0.00;;;;;;;7.39;81.60;103497.75;10498209;28;20017;-72
2022/02/26 13:35:03;;;;;;;0.00;0.00;;;;;;;7.39;79.24;103489.78;10498353;28;20028;-72
2022/02/26 13:40:06;;;;;;;0.00;0.00;;;;;;;7.38;75.97;103494.22;10479615;28;20028;-72
2022/02/26 13:45:14;;;;;;;0.00;0.00;;;;;;;7.40;79.52;103491.50;10497663;28;20117;-72
2022/02/26 13:50:16;;;;;;;0.00;0.00;;;;;;;7.39;75.60;103489.78;10497649;28;20581;-72
2022/02/26 13:55:19;;;;;;;0.10;0.10;;;;;;;7.39;76.80;103490.66;10496993;28;20069;-72
2022/02/26 14:00:25;;;;;;;0.00;0.00;;;;;;;7.43;75.14;103494.00;10496919;28;20033;-72
2022/02/26 14:05:30;;;;;;;0.00;0.00;;;;;;;7.41;76.22;103485.25;10477574;28;20024;-72
2022/02/26 14:10:30;;;;;;;0.00;0.00;;;;;;;7.40;74.13;103486.19;10488354;28;20098;-72
2022/02/26 14:15:30;;;;;;;0.10;0.10;;;;;;;7.41;74.09;103486.09;10496513;28;20036;-72
2022/02/26 14:20:32;;;;;;;0.00;0.00;;;;;;;7.35;74.81;103485.56;10495823;28;20025;-72
2022/02/26 14:25:34;;;;;;;0.00;0.00;;;;;;;7.30;76.02;103488.44;10496061;28;20024;-72
2022/02/26 14:30:39;;;;;;;0.00;0.00;;;;;;;7.23;74.96;103485.19;10477596;28;20061;-72
2022/02/26 14:35:41;;;;;;;;;;;;;;;7.16;75.91;103490.88;10477863;28;20421;-72
2022/02/26 14:40:42;;;;;;;0.00;0.00;;;;;;;7.12;74.76;103482.19;10495278;28;19912;-72
2022/02/26 14:45:42;;;;;;;0.00;0.00;;;;;;;7.10;73.17;103499.09;10495251;28;20101;-72
2022/02/26 14:50:43;;;;;;;0.00;0.00;;;;;;;7.09;73.19;103492.06;10494906;28;20505;-72
2022/02/26 14:55:43;;;;;;;0.00;0.00;;;;;;;7.06;72.97;103489.56;10494790;28;20271;-72
2022/02/26 15:00:43;;;;;;;0.00;0.00;;;;;;;6.98;71.49;103489.91;10494343;28;20024;-72
2022/02/26 15:05:44;;;;;;;0.00;0.00;;;;;;;6.95;73.68;103482.09;10494209;28;20103;-72
2022/02/26 15:10:44;;;;;;;0.00;0.00;;;;;;;6.94;71.91;103488.34;10494214;28;20021;-72
2022/02/26 15:15:44;;;;;;;0.10;0.10;;;;;;;6.95;72.44;103480.34;10494256;28;20289;-72
2022/02/26 15:20:45;;;;;;;0.05;0.05;;;;;;;6.97;73.14;103482.91;10493266;28;20451;-72
2022/02/26 15:25:45;;;;;;;0.00;0.00;;;;;;;6.98;69.72;103474.91;10494042;28;20020;-72
2022/02/26 15:30:45;;;;;;;0.00;0.00;;;;;;;6.95;72.19;103479.47;10493533;28;20031;-72
2022/02/26 15:35:46;;;;;;;0.00;0.00;;;;;;;6.91;72.21;103477.88;10493619;28;20274;-72
2022/02/26 15:40:46;;;;;;;0.00;0.00;;;;;;;6.86;73.80;103474.59;10493468;28;20039;-72
2022/02/26 15:45:47;;;;;;;0.00;0.00;;;;;;;6.77;74.76;103475.88;10475423;28;20067;-72
2022/02/26 15:50:47;;;;;;;0.00;0.00;;;;;;;6.70;75.30;103479.72;10475073;28;20020;-72
2022/02/26 15:55:48;;;;;;;0.00;0.00;;;;;;;6.55;74.94;103470.69;10496689;22;20314;-90
2022/02/26 16:00:49;;;;;;;0.00;0.00;;;;;;;6.51;75.11;103477.88;10477843;28;20034;-92
2022/02/26 16:05:49;;;;;;;0.00;0.00;;;;;;;6.40;76.79;103474.88;10481840;28;20048;-89
2022/02/26 16:10:49;;;;;;;0.10;0.10;;;;;;;6.23;79.20;103480.03;10484184;28;20426;-91
2022/02/26 16:15:50;;;;;;;0.00;0.00;;;;;;;6.08;79.69;103486.84;10478220;28;20405;-92
2022/02/26 16:20:53;;;;;;;0.00;0.00;;;;;;;5.89;79.79;103479.63;10477664;28;20025;-91
2022/02/26 16:25:53;;;;;;;0.00;0.00;;;;;;;5.68;79.63;103472.59;10478714;28;20016;-91
2022/02/26 16:30:54;;;;;;;0.00;0.00;;;;;;;5.63;79.64;103482.47;10482274;28;20023;-91
2022/02/26 16:35:55;;;;;;;0.00;0.00;;;;;;;5.44;80.59;103479.72;10485279;28;20294;-90
2022/02/26 16:40:55;;;;;;;0.00;0.00;;;;;;;5.25;81.35;103474.28;10485693;28;20567;-91
2022/02/26 16:45:55;;;;;;;0.00;0.00;;;;;;;5.14;82.06;103487.91;10486399;28;20020;-91
2022/02/26 16:50:56;;;;;;;0.00;0.00;;;;;;;5.06;81.08;103499.69;10487107;28;20119;-91
2022/02/26 16:55:56;;;;;;;0.00;0.00;;;;;;;4.75;82.47;103482.34;10484632;28;20021;-91
2022/02/26 17:00:56;;;;;;;0.00;0.00;;;;;;;4.60;83.26;103496.13;10484600;28;20039;-91
2022/02/26 17:05:57;;;;;;;0.00;0.00;;;;;;;4.32;84.13;103486.53;10484487;28;20271;-91
2022/02/26 17:10:57;;;;;;;0.00;0.00;;;;;;;4.27;84.66;103515.69;10485286;28;20255;-90
2022/02/26 17:15:58;;;;;;;0.00;0.00;;;;;;;4.14;87.15;103516.19;10483833;28;20126;-91
2022/02/26 17:20:59;;;;;;;0.00;0.00;;;;;;;3.99;88.38;103518.41;10484456;28;20651;-91
2022/02/26 17:25:59;;;;;;;0.00;0.00;;;;;;;3.86;89.66;103519.72;10482221;28;20025;-90
2022/02/26 17:30:59;;;;;;;0.00;0.00;;;;;;;3.69;89.66;103522.03;10496190;28;20031;-91
2022/02/26 17:36:00;;;;;;;0.00;0.00;;;;;;;3.51;89.01;103505.88;10483747;28;20031;-91
2022/02/26 17:41:01;;;;;;;0.00;0.00;;;;;;;3.48;88.40;103524.41;10481525;28;20042;-90
2022/02/26 17:46:01;;;;;;;0.00;0.00;;;;;;;3.46;88.37;103528.00;10483098;28;20021;-91
2022/02/26 17:51:01;;;;;;;0.00;0.00;;;;;;;3.20;93.35;103528.78;10482391;28;20476;-91
2022/02/26 17:56:03;;;;;;;0.00;0.00;;;;;;;2.87;92.36;103539.38;10499000;28;20472;-91
2022/02/26 18:01:04;;;;;;;0.00;0.00;;;;;;;2.64;92.53;103530.34;10481713;28;20047;-91
2022/02/26 18:06:04;;;;;;;0.00;0.00;;;;;;;2.47;95.57;103538.72;10482769;28;20554;-91
2022/02/26 18:11:05;;;;;;;0.00;0.00;;;;;;;2.37;98.35;103538.97;10496457;28;20332;-92
2022/02/26 18:21:11;;;;;;;0.00;0.00;;;;;;;2.14;99.48;103557.97;10451202;28;20099;-73
2022/02/26 18:26:11;;;;;;;0.00;0.00;;;;;;;1.99;100.00;103559.19;10425964;28;20021;-73
2022/02/26 18:31:12;;;;;;;0.00;0.00;;;;;;;1.90;100.00;103562.06;10411450;28;20423;-73
2022/02/26 18:36:13;;;;;;;0.00;0.00;;;;;;;1.81;100.00;103563.13;10432825;28;20017;-73
2022/02/26 18:41:13;;;;;;;0.00;0.00;;;;;;;1.93;100.00;103564.59;10434099;28;20025;-73
2022/02/26 18:46:13;;;;;;;0.08;0.08;;;;;;;1.93;100.00;103567.22;10450883;28;20053;-73
2022/02/26 18:51:14;;;;;;;0.00;0.00;;;;;;;1.78;100.00;103574.56;10448338;28;20116;-73
2022/02/26 18:56:14;;;;;;;0.00;0.00;;;;;;;1.66;100.00;103564.34;10451087;28;20102;-73
2022/02/26 19:01:15;;;;;;;0.00;0.00;;;;;;;1.70;100.00;103573.00;10451314;28;20071;-73
2022/02/26 19:06:16;;;;;;;0.00;0.00;;;;;;;1.59;100.00;103584.59;10418700;28;20029;-73
2022/02/26 19:11:17;;;;;;;0.00;0.00;;;;;;;1.53;100.00;103586.50;10409920;28;20021;-73
2022/02/26 19:16:18;;;;;;;0.00;0.00;;;;;;;1.48;100.00;103589.22;10443086;28;20028;-73
2022/02/26 19:21:19;;;;;;;0.00;0.00;;;;;;;1.44;100.00;103595.44;10450458;28;20029;-73
2022/02/26 19:26:20;;;;;;;0.00;0.00;;;;;;;1.40;100.00;103599.06;10443767;28;20025;-73
2022/02/26 19:31:20;;;;;;;0.00;0.00;;;;;;;1.25;100.00;103596.72;10449796;28;20325;-73
2022/02/26 19:36:20;;;;;;;0.10;0.10;;;;;;;1.18;100.00;103603.00;10422510;28;20029;-73
2022/02/26 19:41:21;;;;;;;0.00;0.00;;;;;;;1.11;100.00;103599.63;10432307;28;20043;-73
2022/02/26 19:46:21;;;;;;;0.00;0.00;;;;;;;1.19;100.00;103612.59;10435608;28;20029;-73
2022/02/26 19:51:24;;;;;;;0.00;0.00;;;;;;;1.26;100.00;103606.34;10408600;28;20037;-73
2022/02/26 19:56:25;;;;;;;0.00;0.00;;;;;;;1.21;100.00;103603.78;10433549;28;20059;-73
2022/02/26 20:01:25;;;;;;;0.00;0.00;;;;;;;1.16;100.00;103608.28;10443788;28;20029;-73
2022/02/26 20:06:26;;;;;;;0.00;0.00;;;;;;;1.07;100.00;103603.19;10444305;28;20114;-73
2022/02/26 20:11:26;;;;;;;0.10;0.10;;;;;;;1.01;100.00;103606.81;10428672;28;20040;-73
2022/02/26 20:16:27;;;;;;;0.00;0.00;;;;;;;1.00;100.00;103612.97;10419971;28;20079;-73
2022/02/26 20:21:28;;;;;;;0.05;0.05;;;;;;;0.89;100.00;103610.53;10442387;28;20373;-73
2022/02/26 20:26:28;;;;;;;0.10;0.10;;;;;;;0.84;100.00;103616.75;10448473;28;20574;-73
2022/02/26 20:31:29;;;;;;;0.10;0.10;;;;;;;0.76;100.00;103611.66;10448368;28;20096;-73
2022/02/26 20:36:29;;;;;;;0.00;0.00;;;;;;;0.69;100.00;103617.88;10448698;28;20275;-73
2022/02/26 20:41:29;;;;;;;0.10;0.10;;;;;;;0.55;100.00;103622.50;10430922;28;20378;-73
2022/02/26 20:46:30;;;;;;;0.00;0.00;;;;;;;0.51;100.00;103626.09;10448518;28;20347;-73
2022/02/26 20:51:30;;;;;;;0.00;0.00;;;;;;;0.36;100.00;103638.56;10448138;28;20028;-73
2022/02/26 20:56:31;;;;;;;0.00;0.00;;;;;;;0.15;100.00;103636.28;10448051;28;20774;-73
2022/02/26 21:01:31;;;;;;;0.00;0.00;;;;;;;0.02;100.00;103634.72;10422430;28;20027;-74
2022/02/26 21:06:31;;;;;;;0.00;0.00;;;;;;;-0.03;100.00;103640.88;10411552;28;20264;-74
2022/02/26 21:11:34;;;;;;;0.00;0.00;;;;;;;-0.06;100.00;103648.81;10406970;28;20464;-73
2022/02/26 21:16:34;;;;;;;0.13;0.13;;;;;;;-0.07;100.00;103644.41;10392966;28;20112;-74
2022/02/26 21:21:35;;;;;;;0.05;0.05;;;;;;;0.01;100.00;103643.47;10411210;28;20464;-74
2022/02/26 21:26:35;;;;;;;0.00;0.00;;;;;;;-0.01;100.00;103638.22;10455331;28;20009;-74
2022/02/26 21:31:35;;;;;;;0.00;0.00;;;;;;;-0.05;100.00;103649.66;10437135;28;20033;-74
2022/02/26 21:36:36;;;;;;;0.03;0.03;;;;;;;-0.16;100.00;103657.66;10413734;28;20025;-74
2022/02/26 21:41:46;;;;;;;0.10;0.10;;;;;;;-0.23;100.00;103648.16;10413112;28;20264;-74
2022/02/26 21:46:47;;;;;;;0.10;0.10;;;;;;;-0.35;100.00;103643.94;10452197;28;20033;-74
2022/02/26 21:51:47;;;;;;;0.10;0.10;;;;;;;-0.48;100.00;103644.97;10453600;28;20056;-74
2022/02/26 21:56:48;;;;;;;0.00;0.00;;;;;;;-0.54;100.00;103647.66;10405054;22;20304;-72
2022/02/26 22:01:49;;;;;;;0.03;0.03;;;;;;;-0.60;100.00;103659.06;10406894;28;20260;-72
2022/02/26 22:06:49;;;;;;;0.00;0.00;;;;;;;-0.66;100.00;103661.75;10412189;28;20017;-72
2022/02/26 22:11:49;;;;;;;0.10;0.10;;;;;;;-0.66;100.00;103664.38;10406943;28;20044;-72
2022/02/26 22:16:50;;;;;;;0.10;0.10;;;;;;;-0.68;100.00;103667.00;10412351;28;20014;-73
2022/02/26 22:21:50;;;;;;;0.00;0.00;;;;;;;-0.70;100.00;103666.19;10401132;28;20026;-72
2022/02/26 22:26:50;;;;;;;0.10;0.10;;;;;;;-0.71;100.00;103656.56;10408767;28;20495;-71
2022/02/26 22:31:51;;;;;;;0.10;0.10;;;;;;;-0.78;100.00;103654.91;10394425;28;21136;-71
2022/02/26 22:36:52;;;;;;;0.10;0.10;;;;;;;-0.83;100.00;103659.31;10370349;28;20287;-72
2022/02/26 22:41:53;;;;;;;0.10;0.10;;;;;;;-0.88;100.00;103657.63;10370563;28;20026;-71
2022/02/26 22:46:55;;;;;;;0.10;0.10;;;;;;;-0.96;100.00;103653.38;10370201;28;20198;-74
2022/02/26 22:51:55;;;;;;;0.10;0.10;;;;;;;-1.01;100.00;103655.16;10380804;28;20025;-71
2022/02/26 22:56:55;;;;;;;0.08;0.08;;;;;;;-1.08;100.00;103657.81;10449945;28;20046;-72
2022/02/26 23:02:33;;;;;;;0.10;0.10;;;;;;;-1.21;100.00;103660.56;10461484;28;20030;-71
2022/02/26 23:07:16;;;;;;;0.00;0.00;;;;;;;-1.39;100.00;103671.19;10489684;28;20251;-71
2022/02/26 23:12:17;;;;;;;0.10;0.10;;;;;;;-1.45;100.00;103674.72;10491696;28;20103;-71
2022/02/26 23:17:18;;;;;;;0.03;0.03;;;;;;;-1.50;100.00;103673.88;10491919;28;20271;-71
2022/02/26 23:22:18;;;;;;;0.10;0.10;;;;;;;-1.51;100.00;103674.75;10484059;28;20559;-71